Sd416 Nippon — SKPF — position and weather

sailwx.info

Track history (hours):
 
Tides and Currents Weather Stations Pressure Air Temp Water Temp Dewpoint Dewpoint Depression Visibility Wind Speed Wind Dir Waves Ship Positions

Sd416 Nippon

Last reported at 2014-Sep-15 23:19 UTC. Time now 2014-Sep-20 10:05 UTC.
Position N 58°56' E 011°10'.

Length 17 m; draft 2.5 m.

Type: Fishing. MMSI: 266163000.

Date/timePositionNaut miles runAvg speedWind from/ knotsBaromVisibWave heightAir tempDewpointWater temp
2014-Sep-15 23:19N 58°56' E 011°10'17 2.8
2014-Sep-15 17:24N 58°53' E 010°39'1 0.8
2014-Sep-15 16:29N 58°52' E 010°40'3 0.4
2014-Sep-15 09:17N 58°50' E 010°43'1 1.3
2014-Sep-15 08:33N 58°51' E 010°43'0 0.5
2014-Sep-15 07:33N 58°52' E 010°43'2 1.3
2014-Sep-15 06:20N 58°50' E 010°43'1 0.1
2014-Sep-14 21:33N 58°51' E 010°42'5 1.0
2014-Sep-14 16:33N 58°52' E 010°51'  
2014-Sep-11 09:15N 58°58' E 011°03'5 7.8
2014-Sep-11 08:33N 59°02' E 010°56'3 3.3
2014-Sep-11 07:33N 59°05' E 010°52'0 0.0
2014-Sep-11 06:33N 59°05' E 010°52'0 0.0
2014-Sep-11 05:33N 59°05' E 010°52'2 2.3
2014-Sep-11 04:33N 59°03' E 010°55'12 0.2
2014-Sep-09 02:12N 58°52' E 011°05'8 0.2
2014-Sep-07 16:32N 58°53' E 010°50'  
Track history (hours):
 
Tides and Currents Weather Stations Pressure Air Temp Water Temp Dewpoint Dewpoint Depression Visibility Wind Speed Wind Dir Waves Ship Positions

Sd416 Nippon

Last reported at 2014-Sep-15 23:19 UTC. Time now 2014-Sep-20 10:05 UTC.
Position N 58°56' E 011°10'.

Length 17 m; draft 2.5 m.

Type: Fishing. MMSI: 266163000.

Date/timePositionNaut miles runAvg speedWind from/ knotsBaromVisibWave heightAir tempDewpointWater temp
2014-Sep-15 23:19N 58°56' E 011°10'17 2.8
2014-Sep-15 17:24N 58°53' E 010°39'1 0.8
2014-Sep-15 16:29N 58°52' E 010°40'3 0.4
2014-Sep-15 09:17N 58°50' E 010°43'1 1.3
2014-Sep-15 08:33N 58°51' E 010°43'0 0.5
2014-Sep-15 07:33N 58°52' E 010°43'2 1.3
2014-Sep-15 06:20N 58°50' E 010°43'1 0.1
2014-Sep-14 21:33N 58°51' E 010°42'5 1.0
2014-Sep-14 16:33N 58°52' E 010°51'  
2014-Sep-11 09:15N 58°58' E 011°03'5 7.8
2014-Sep-11 08:33N 59°02' E 010°56'3 3.3
2014-Sep-11 07:33N 59°05' E 010°52'0 0.0
2014-Sep-11 06:33N 59°05' E 010°52'0 0.0
2014-Sep-11 05:33N 59°05' E 010°52'2 2.3
2014-Sep-11 04:33N 59°03' E 010°55'12 0.2
2014-Sep-09 02:12N 58°52' E 011°05'8 0.2
2014-Sep-07 16:32N 58°53' E 010°50'  

Dump ship's entire track history